sensor_id;sensor_type;location;lat;lon;timestamp;P1;durP1;ratioP1;P2;durP2;ratioP2
20865;SDS011;10593;48.398;10.698;2023-04-24T00:01:42;0.70;;;0.60;;
20865;SDS011;10593;48.398;10.698;2023-04-24T00:04:08;0.50;;;0.50;;
20865;SDS011;10593;48.398;10.698;2023-04-24T00:06:36;0.93;;;0.67;;
20865;SDS011;10593;48.398;10.698;2023-04-24T00:09:03;0.70;;;0.50;;
20865;SDS011;10593;48.398;10.698;2023-04-24T00:11:29;0.50;;;0.50;;
20865;SDS011;10593;48.398;10.698;2023-04-24T00:13:55;0.93;;;0.60;;
20865;SDS011;10593;48.398;10.698;2023-04-24T00:16:22;0.47;;;0.47;;
20865;SDS011;10593;48.398;10.698;2023-04-24T00:18:48;0.87;;;0.70;;
20865;SDS011;10593;48.398;10.698;2023-04-24T00:21:14;2.90;;;0.50;;
20865;SDS011;10593;48.398;10.698;2023-04-24T00:23:42;0.70;;;0.70;;
20865;SDS011;10593;48.398;10.698;2023-04-24T00:26:08;0.40;;;0.40;;
20865;SDS011;10593;48.398;10.698;2023-04-24T00:28:34;0.63;;;0.60;;
20865;SDS011;10593;48.398;10.698;2023-04-24T00:31:00;0.80;;;0.80;;
20865;SDS011;10593;48.398;10.698;2023-04-24T00:33:26;1.07;;;0.73;;
20865;SDS011;10593;48.398;10.698;2023-04-24T00:35:51;0.50;;;0.37;;
20865;SDS011;10593;48.398;10.698;2023-04-24T00:38:17;1.13;;;0.53;;
20865;SDS011;10593;48.398;10.698;2023-04-24T00:40:43;1.17;;;0.87;;
20865;SDS011;10593;48.398;10.698;2023-04-24T00:43:09;0.63;;;0.63;;
20865;SDS011;10593;48.398;10.698;2023-04-24T00:45:35;1.23;;;0.50;;
20865;SDS011;10593;48.398;10.698;2023-04-24T00:48:01;0.57;;;0.50;;
20865;SDS011;10593;48.398;10.698;2023-04-24T00:50:28;0.80;;;0.80;;
20865;SDS011;10593;48.398;10.698;2023-04-24T00:52:55;0.43;;;0.43;;
20865;SDS011;10593;48.398;10.698;2023-04-24T00:55:21;0.30;;;0.30;;
20865;SDS011;10593;48.398;10.698;2023-04-24T00:57:46;0.50;;;0.50;;
20865;SDS011;10593;48.398;10.698;2023-04-24T01:00:14;0.87;;;0.70;;
20865;SDS011;10593;48.398;10.698;2023-04-24T01:02:41;1.13;;;0.53;;
20865;SDS011;10593;48.398;10.698;2023-04-24T01:05:10;0.60;;;0.60;;
20865;SDS011;10593;48.398;10.698;2023-04-24T01:07:41;0.70;;;0.70;;
20865;SDS011;10593;48.398;10.698;2023-04-24T01:10:10;0.90;;;0.70;;
20865;SDS011;10593;48.398;10.698;2023-04-24T01:12:38;0.53;;;0.43;;
20865;SDS011;10593;48.398;10.698;2023-04-24T01:15:04;0.70;;;0.70;;
20865;SDS011;10593;48.398;10.698;2023-04-24T01:17:31;0.60;;;0.60;;
20865;SDS011;10593;48.398;10.698;2023-04-24T01:19:58;1.10;;;0.60;;
20865;SDS011;10593;48.398;10.698;2023-04-24T01:22:26;1.50;;;0.50;;
20865;SDS011;10593;48.398;10.698;2023-04-24T01:24:52;0.50;;;0.50;;
20865;SDS011;10593;48.398;10.698;2023-04-24T01:27:18;1.07;;;0.67;;
20865;SDS011;10593;48.398;10.698;2023-04-24T01:29:45;0.67;;;0.57;;
20865;SDS011;10593;48.398;10.698;2023-04-24T01:32:12;0.50;;;0.50;;
20865;SDS011;10593;48.398;10.698;2023-04-24T01:34:38;0.30;;;0.30;;
20865;SDS011;10593;48.398;10.698;2023-04-24T01:37:05;0.40;;;0.40;;
20865;SDS011;10593;48.398;10.698;2023-04-24T01:39:31;0.50;;;0.40;;
20865;SDS011;10593;48.398;10.698;2023-04-24T01:41:58;1.00;;;0.60;;
20865;SDS011;10593;48.398;10.698;2023-04-24T01:44:25;0.60;;;0.60;;
20865;SDS011;10593;48.398;10.698;2023-04-24T01:46:51;0.97;;;0.40;;
20865;SDS011;10593;48.398;10.698;2023-04-24T01:49:19;0.50;;;0.50;;
20865;SDS011;10593;48.398;10.698;2023-04-24T01:51:44;0.37;;;0.37;;
20865;SDS011;10593;48.398;10.698;2023-04-24T01:54:10;1.40;;;0.90;;
20865;SDS011;10593;48.398;10.698;2023-04-24T01:56:36;0.70;;;0.60;;
20865;SDS011;10593;48.398;10.698;2023-04-24T01:59:07;0.63;;;0.63;;
20865;SDS011;10593;48.398;10.698;2023-04-24T02:01:36;0.50;;;0.50;;
20865;SDS011;10593;48.398;10.698;2023-04-24T02:04:06;0.30;;;0.30;;
20865;SDS011;10593;48.398;10.698;2023-04-24T02:06:32;0.60;;;0.50;;
20865;SDS011;10593;48.398;10.698;2023-04-24T02:08:58;1.80;;;0.80;;
20865;SDS011;10593;48.398;10.698;2023-04-24T02:11:25;0.40;;;0.40;;
20865;SDS011;10593;48.398;10.698;2023-04-24T02:13:51;1.17;;;0.50;;
20865;SDS011;10593;48.398;10.698;2023-04-24T02:16:17;0.60;;;0.43;;
20865;SDS011;10593;48.398;10.698;2023-04-24T02:18:43;0.30;;;0.30;;
20865;SDS011;10593;48.398;10.698;2023-04-24T02:21:09;1.27;;;0.60;;
20865;SDS011;10593;48.398;10.698;2023-04-24T02:23:35;0.60;;;0.60;;
20865;SDS011;10593;48.398;10.698;2023-04-24T02:26:01;0.50;;;0.50;;
20865;SDS011;10593;48.398;10.698;2023-04-24T02:28:27;0.60;;;0.60;;
20865;SDS011;10593;48.398;10.698;2023-04-24T02:30:52;0.30;;;0.30;;
20865;SDS011;10593;48.398;10.698;2023-04-24T02:33:18;0.40;;;0.40;;
20865;SDS011;10593;48.398;10.698;2023-04-24T02:35:44;0.73;;;0.63;;
20865;SDS011;10593;48.398;10.698;2023-04-24T02:38:10;0.50;;;0.50;;
20865;SDS011;10593;48.398;10.698;2023-04-24T02:40:36;0.43;;;0.43;;
20865;SDS011;10593;48.398;10.698;2023-04-24T02:43:01;0.73;;;0.73;;
20865;SDS011;10593;48.398;10.698;2023-04-24T02:45:27;1.03;;;0.63;;
20865;SDS011;10593;48.398;10.698;2023-04-24T02:47:53;0.53;;;0.53;;
20865;SDS011;10593;48.398;10.698;2023-04-24T02:50:18;0.40;;;0.40;;
20865;SDS011;10593;48.398;10.698;2023-04-24T02:52:44;0.60;;;0.60;;
20865;SDS011;10593;48.398;10.698;2023-04-24T02:55:09;0.50;;;0.50;;
20865;SDS011;10593;48.398;10.698;2023-04-24T02:57:35;0.60;;;0.60;;
20865;SDS011;10593;48.398;10.698;2023-04-24T03:00:01;0.53;;;0.53;;
20865;SDS011;10593;48.398;10.698;2023-04-24T03:02:28;1.17;;;0.50;;
20865;SDS011;10593;48.398;10.698;2023-04-24T03:04:53;0.60;;;0.60;;
20865;SDS011;10593;48.398;10.698;2023-04-24T03:07:20;0.70;;;0.70;;
20865;SDS011;10593;48.398;10.698;2023-04-24T03:09:45;0.40;;;0.40;;
20865;SDS011;10593;48.398;10.698;2023-04-24T03:12:12;1.10;;;0.60;;
20865;SDS011;10593;48.398;10.698;2023-04-24T03:14:38;0.67;;;0.67;;
20865;SDS011;10593;48.398;10.698;2023-04-24T03:17:03;1.73;;;0.70;;
20865;SDS011;10593;48.398;10.698;2023-04-24T03:19:29;1.23;;;0.70;;
20865;SDS011;10593;48.398;10.698;2023-04-24T03:21:55;1.07;;;0.77;;
20865;SDS011;10593;48.398;10.698;2023-04-24T03:24:21;0.50;;;0.50;;
20865;SDS011;10593;48.398;10.698;2023-04-24T03:26:47;0.40;;;0.40;;
20865;SDS011;10593;48.398;10.698;2023-04-24T03:29:13;0.73;;;0.70;;
20865;SDS011;10593;48.398;10.698;2023-04-24T03:31:38;1.40;;;0.53;;
20865;SDS011;10593;48.398;10.698;2023-04-24T03:34:04;0.60;;;0.60;;
20865;SDS011;10593;48.398;10.698;2023-04-24T03:36:30;0.67;;;0.50;;
20865;SDS011;10593;48.398;10.698;2023-04-24T03:38:56;0.67;;;0.67;;
20865;SDS011;10593;48.398;10.698;2023-04-24T03:41:22;0.53;;;0.53;;
20865;SDS011;10593;48.398;10.698;2023-04-24T03:43:47;0.33;;;0.33;;
20865;SDS011;10593;48.398;10.698;2023-04-24T03:46:13;0.60;;;0.60;;
20865;SDS011;10593;48.398;10.698;2023-04-24T03:48:39;0.80;;;0.80;;
20865;SDS011;10593;48.398;10.698;2023-04-24T03:51:04;0.83;;;0.53;;
20865;SDS011;10593;48.398;10.698;2023-04-24T03:53:30;0.60;;;0.60;;
20865;SDS011;10593;48.398;10.698;2023-04-24T03:55:55;1.13;;;0.83;;
20865;SDS011;10593;48.398;10.698;2023-04-24T03:58:21;0.70;;;0.70;;
20865;SDS011;10593;48.398;10.698;2023-04-24T04:00:47;0.53;;;0.53;;
20865;SDS011;10593;48.398;10.698;2023-04-24T04:03:13;1.00;;;1.00;;
20865;SDS011;10593;48.398;10.698;2023-04-24T04:05:39;1.37;;;1.00;;
20865;SDS011;10593;48.398;10.698;2023-04-24T04:08:05;0.87;;;0.87;;
20865;SDS011;10593;48.398;10.698;2023-04-24T04:10:31;1.43;;;0.97;;
20865;SDS011;10593;48.398;10.698;2023-04-24T04:12:57;1.03;;;1.03;;
20865;SDS011;10593;48.398;10.698;2023-04-24T04:15:22;1.50;;;1.40;;
20865;SDS011;10593;48.398;10.698;2023-04-24T04:17:48;1.27;;;1.03;;
20865;SDS011;10593;48.398;10.698;2023-04-24T04:20:14;1.30;;;1.20;;
20865;SDS011;10593;48.398;10.698;2023-04-24T04:22:39;1.40;;;1.40;;
20865;SDS011;10593;48.398;10.698;2023-04-24T04:25:08;1.33;;;1.20;;
20865;SDS011;10593;48.398;10.698;2023-04-24T04:27:34;2.00;;;1.10;;
20865;SDS011;10593;48.398;10.698;2023-04-24T04:30:00;1.30;;;1.20;;
20865;SDS011;10593;48.398;10.698;2023-04-24T04:32:29;1.23;;;1.13;;
20865;SDS011;10593;48.398;10.698;2023-04-24T04:34:59;1.00;;;1.00;;
20865;SDS011;10593;48.398;10.698;2023-04-24T04:37:28;1.10;;;1.10;;
20865;SDS011;10593;48.398;10.698;2023-04-24T04:39:54;1.37;;;1.27;;
20865;SDS011;10593;48.398;10.698;2023-04-24T04:42:20;1.87;;;0.93;;
20865;SDS011;10593;48.398;10.698;2023-04-24T04:44:46;0.93;;;0.90;;
20865;SDS011;10593;48.398;10.698;2023-04-24T04:47:11;1.23;;;0.70;;
20865;SDS011;10593;48.398;10.698;2023-04-24T04:49:37;0.90;;;0.70;;
20865;SDS011;10593;48.398;10.698;2023-04-24T04:52:03;0.60;;;0.60;;
20865;SDS011;10593;48.398;10.698;2023-04-24T04:54:29;0.67;;;0.67;;
20865;SDS011;10593;48.398;10.698;2023-04-24T04:56:56;1.33;;;0.90;;
20865;SDS011;10593;48.398;10.698;2023-04-24T04:59:22;0.60;;;0.60;;
20865;SDS011;10593;48.398;10.698;2023-04-24T05:01:47;1.23;;;1.20;;
20865;SDS011;10593;48.398;10.698;2023-04-24T05:04:13;1.00;;;1.00;;
20865;SDS011;10593;48.398;10.698;2023-04-24T05:06:39;0.93;;;0.93;;
20865;SDS011;10593;48.398;10.698;2023-04-24T05:09:05;1.40;;;1.30;;
20865;SDS011;10593;48.398;10.698;2023-04-24T05:11:32;1.77;;;1.67;;
20865;SDS011;10593;48.398;10.698;2023-04-24T05:13:58;2.03;;;1.43;;
20865;SDS011;10593;48.398;10.698;2023-04-24T05:16:23;1.30;;;1.30;;
20865;SDS011;10593;48.398;10.698;2023-04-24T05:18:49;1.17;;;0.90;;
20865;SDS011;10593;48.398;10.698;2023-04-24T05:21:15;0.93;;;0.93;;
20865;SDS011;10593;48.398;10.698;2023-04-24T05:23:43;0.80;;;0.80;;
20865;SDS011;10593;48.398;10.698;2023-04-24T05:26:09;1.00;;;0.90;;
20865;SDS011;10593;48.398;10.698;2023-04-24T05:28:35;0.57;;;0.57;;
20865;SDS011;10593;48.398;10.698;2023-04-24T05:31:01;0.90;;;0.83;;
20865;SDS011;10593;48.398;10.698;2023-04-24T05:33:28;0.80;;;0.70;;
20865;SDS011;10593;48.398;10.698;2023-04-24T05:35:53;0.70;;;0.70;;
20865;SDS011;10593;48.398;10.698;2023-04-24T05:38:19;1.00;;;1.00;;
20865;SDS011;10593;48.398;10.698;2023-04-24T05:40:45;1.13;;;1.13;;
20865;SDS011;10593;48.398;10.698;2023-04-24T05:43:11;1.70;;;1.60;;
20865;SDS011;10593;48.398;10.698;2023-04-24T05:45:37;1.50;;;1.40;;
20865;SDS011;10593;48.398;10.698;2023-04-24T05:48:03;1.60;;;1.50;;
20865;SDS011;10593;48.398;10.698;2023-04-24T05:50:29;1.90;;;1.80;;
20865;SDS011;10593;48.398;10.698;2023-04-24T05:52:55;2.17;;;2.03;;
20865;SDS011;10593;48.398;10.698;2023-04-24T05:55:23;2.67;;;2.47;;
20865;SDS011;10593;48.398;10.698;2023-04-24T05:57:50;2.73;;;2.53;;
20865;SDS011;10593;48.398;10.698;2023-04-24T06:00:16;2.10;;;2.00;;
20865;SDS011;10593;48.398;10.698;2023-04-24T06:02:44;1.60;;;1.50;;
20865;SDS011;10593;48.398;10.698;2023-04-24T06:05:11;1.20;;;1.10;;
20865;SDS011;10593;48.398;10.698;2023-04-24T06:07:36;0.83;;;0.83;;
20865;SDS011;10593;48.398;10.698;2023-04-24T06:10:02;0.40;;;0.40;;
20865;SDS011;10593;48.398;10.698;2023-04-24T06:12:28;0.77;;;0.63;;
20865;SDS011;10593;48.398;10.698;2023-04-24T06:14:54;0.30;;;0.30;;
20865;SDS011;10593;48.398;10.698;2023-04-24T06:17:22;0.53;;;0.50;;
20865;SDS011;10593;48.398;10.698;2023-04-24T06:19:48;0.40;;;0.40;;
20865;SDS011;10593;48.398;10.698;2023-04-24T06:22:14;0.27;;;0.27;;
20865;SDS011;10593;48.398;10.698;2023-04-24T06:24:40;0.50;;;0.50;;
20865;SDS011;10593;48.398;10.698;2023-04-24T06:27:05;0.23;;;0.23;;
20865;SDS011;10593;48.398;10.698;2023-04-24T06:29:32;0.30;;;0.30;;
20865;SDS011;10593;48.398;10.698;2023-04-24T06:31:58;0.57;;;0.57;;
20865;SDS011;10593;48.398;10.698;2023-04-24T06:34:24;0.73;;;0.50;;
20865;SDS011;10593;48.398;10.698;2023-04-24T06:36:50;0.40;;;0.40;;
20865;SDS011;10593;48.398;10.698;2023-04-24T06:39:16;0.93;;;0.57;;
20865;SDS011;10593;48.398;10.698;2023-04-24T06:41:42;0.33;;;0.33;;
20865;SDS011;10593;48.398;10.698;2023-04-24T06:44:07;0.30;;;0.30;;
20865;SDS011;10593;48.398;10.698;2023-04-24T06:46:33;0.30;;;0.30;;
20865;SDS011;10593;48.398;10.698;2023-04-24T06:49:00;0.93;;;0.50;;
20865;SDS011;10593;48.398;10.698;2023-04-24T06:51:26;0.70;;;0.50;;
20865;SDS011;10593;48.398;10.698;2023-04-24T06:53:55;0.67;;;0.60;;
20865;SDS011;10593;48.398;10.698;2023-04-24T06:56:21;0.40;;;0.40;;
20865;SDS011;10593;48.398;10.698;2023-04-24T06:58:47;0.30;;;0.30;;
20865;SDS011;10593;48.398;10.698;2023-04-24T07:01:13;0.80;;;0.40;;
20865;SDS011;10593;48.398;10.698;2023-04-24T07:03:38;0.40;;;0.40;;
20865;SDS011;10593;48.398;10.698;2023-04-24T07:06:04;1.77;;;0.50;;
20865;SDS011;10593;48.398;10.698;2023-04-24T07:08:31;0.40;;;0.40;;
20865;SDS011;10593;48.398;10.698;2023-04-24T07:10:58;1.70;;;0.70;;
20865;SDS011;10593;48.398;10.698;2023-04-24T07:13:26;0.40;;;0.40;;
20865;SDS011;10593;48.398;10.698;2023-04-24T07:15:53;0.43;;;0.43;;
20865;SDS011;10593;48.398;10.698;2023-04-24T07:18:20;0.57;;;0.30;;
20865;SDS011;10593;48.398;10.698;2023-04-24T07:20:46;0.40;;;0.40;;
20865;SDS011;10593;48.398;10.698;2023-04-24T07:23:12;0.60;;;0.60;;
20865;SDS011;10593;48.398;10.698;2023-04-24T07:25:38;0.50;;;0.50;;
20865;SDS011;10593;48.398;10.698;2023-04-24T07:28:04;1.30;;;1.20;;
20865;SDS011;10593;48.398;10.698;2023-04-24T07:30:30;1.10;;;1.00;;
20865;SDS011;10593;48.398;10.698;2023-04-24T07:32:57;0.80;;;0.80;;
20865;SDS011;10593;48.398;10.698;2023-04-24T07:35:24;0.60;;;0.60;;
20865;SDS011;10593;48.398;10.698;2023-04-24T07:37:51;0.40;;;0.40;;
20865;SDS011;10593;48.398;10.698;2023-04-24T07:40:18;0.90;;;0.50;;
20865;SDS011;10593;48.398;10.698;2023-04-24T07:42:45;0.70;;;0.70;;
20865;SDS011;10593;48.398;10.698;2023-04-24T07:45:13;0.40;;;0.40;;
20865;SDS011;10593;48.398;10.698;2023-04-24T07:47:39;1.70;;;0.60;;
20865;SDS011;10593;48.398;10.698;2023-04-24T07:50:08;0.50;;;0.50;;
20865;SDS011;10593;48.398;10.698;2023-04-24T07:52:35;0.57;;;0.50;;
20865;SDS011;10593;48.398;10.698;2023-04-24T07:55:01;0.53;;;0.50;;
20865;SDS011;10593;48.398;10.698;2023-04-24T07:57:27;0.50;;;0.50;;
20865;SDS011;10593;48.398;10.698;2023-04-24T07:59:53;0.73;;;0.50;;
20865;SDS011;10593;48.398;10.698;2023-04-24T08:02:19;0.73;;;0.50;;
20865;SDS011;10593;48.398;10.698;2023-04-24T08:04:46;1.30;;;0.87;;
20865;SDS011;10593;48.398;10.698;2023-04-24T08:07:12;0.50;;;0.50;;
20865;SDS011;10593;48.398;10.698;2023-04-24T08:09:38;0.77;;;0.70;;
20865;SDS011;10593;48.398;10.698;2023-04-24T08:12:03;0.50;;;0.50;;
20865;SDS011;10593;48.398;10.698;2023-04-24T08:14:29;0.73;;;0.73;;
20865;SDS011;10593;48.398;10.698;2023-04-24T08:16:55;0.63;;;0.63;;
20865;SDS011;10593;48.398;10.698;2023-04-24T08:19:21;0.50;;;0.50;;
20865;SDS011;10593;48.398;10.698;2023-04-24T08:21:47;0.73;;;0.67;;
20865;SDS011;10593;48.398;10.698;2023-04-24T08:24:12;1.13;;;0.70;;
20865;SDS011;10593;48.398;10.698;2023-04-24T08:26:38;0.80;;;0.63;;
20865;SDS011;10593;48.398;10.698;2023-04-24T08:29:04;0.60;;;0.60;;
20865;SDS011;10593;48.398;10.698;2023-04-24T08:31:31;0.50;;;0.50;;
20865;SDS011;10593;48.398;10.698;2023-04-24T08:33:57;0.80;;;0.80;;
20865;SDS011;10593;48.398;10.698;2023-04-24T08:36:23;0.70;;;0.70;;
20865;SDS011;10593;48.398;10.698;2023-04-24T08:38:49;0.37;;;0.37;;
20865;SDS011;10593;48.398;10.698;2023-04-24T08:41:15;0.50;;;0.50;;
20865;SDS011;10593;48.398;10.698;2023-04-24T08:43:43;0.60;;;0.60;;
20865;SDS011;10593;48.398;10.698;2023-04-24T08:46:11;0.70;;;0.70;;
20865;SDS011;10593;48.398;10.698;2023-04-24T08:48:38;0.70;;;0.70;;
20865;SDS011;10593;48.398;10.698;2023-04-24T08:51:06;1.50;;;1.13;;
20865;SDS011;10593;48.398;10.698;2023-04-24T08:53:33;1.07;;;1.00;;
20865;SDS011;10593;48.398;10.698;2023-04-24T08:56:01;1.33;;;0.90;;
20865;SDS011;10593;48.398;10.698;2023-04-24T08:58:27;1.30;;;0.73;;
20865;SDS011;10593;48.398;10.698;2023-04-24T09:00:54;0.80;;;0.80;;
20865;SDS011;10593;48.398;10.698;2023-04-24T09:03:20;1.00;;;0.90;;
20865;SDS011;10593;48.398;10.698;2023-04-24T09:05:48;0.70;;;0.63;;
20865;SDS011;10593;48.398;10.698;2023-04-24T09:08:16;1.30;;;1.03;;
20865;SDS011;10593;48.398;10.698;2023-04-24T09:10:44;1.00;;;1.00;;
20865;SDS011;10593;48.398;10.698;2023-04-24T09:13:10;2.20;;;1.20;;
20865;SDS011;10593;48.398;10.698;2023-04-24T09:15:36;1.00;;;1.00;;
20865;SDS011;10593;48.398;10.698;2023-04-24T09:18:04;1.70;;;0.90;;
20865;SDS011;10593;48.398;10.698;2023-04-24T09:20:30;0.90;;;0.90;;
20865;SDS011;10593;48.398;10.698;2023-04-24T09:22:57;2.27;;;1.10;;
20865;SDS011;10593;48.398;10.698;2023-04-24T09:25:33;1.30;;;1.20;;
20865;SDS011;10593;48.398;10.698;2023-04-24T09:28:03;1.20;;;1.10;;
20865;SDS011;10593;48.398;10.698;2023-04-24T09:30:31;1.00;;;1.00;;
20865;SDS011;10593;48.398;10.698;2023-04-24T09:33:13;0.90;;;0.90;;
20865;SDS011;10593;48.398;10.698;2023-04-24T09:35:50;0.73;;;0.73;;
20865;SDS011;10593;48.398;10.698;2023-04-24T09:38:17;1.00;;;1.00;;
20865;SDS011;10593;48.398;10.698;2023-04-24T09:40:42;0.90;;;0.90;;
20865;SDS011;10593;48.398;10.698;2023-04-24T09:43:11;1.23;;;0.97;;
20865;SDS011;10593;48.398;10.698;2023-04-24T09:45:38;2.77;;;1.00;;
20865;SDS011;10593;48.398;10.698;2023-04-24T09:48:05;0.87;;;0.87;;
20865;SDS011;10593;48.398;10.698;2023-04-24T09:50:34;0.80;;;0.80;;
20865;SDS011;10593;48.398;10.698;2023-04-24T09:53:03;0.67;;;0.67;;
20865;SDS011;10593;48.398;10.698;2023-04-24T09:55:38;0.83;;;0.83;;
20865;SDS011;10593;48.398;10.698;2023-04-24T09:58:10;1.60;;;0.60;;
20865;SDS011;10593;48.398;10.698;2023-04-24T10:00:36;3.33;;;0.47;;
20865;SDS011;10593;48.398;10.698;2023-04-24T10:03:05;0.60;;;0.60;;
20865;SDS011;10593;48.398;10.698;2023-04-24T10:05:31;0.67;;;0.50;;
20865;SDS011;10593;48.398;10.698;2023-04-24T10:08:00;3.70;;;0.57;;
20865;SDS011;10593;48.398;10.698;2023-04-24T10:10:29;1.03;;;0.70;;
20865;SDS011;10593;48.398;10.698;2023-04-24T10:13:01;0.90;;;0.90;;
20865;SDS011;10593;48.398;10.698;2023-04-24T10:15:28;0.63;;;0.63;;
20865;SDS011;10593;48.398;10.698;2023-04-24T10:17:55;0.80;;;0.80;;
20865;SDS011;10593;48.398;10.698;2023-04-24T10:20:25;0.90;;;0.90;;
20865;SDS011;10593;48.398;10.698;2023-04-24T10:22:54;0.80;;;0.80;;
20865;SDS011;10593;48.398;10.698;2023-04-24T10:25:24;0.80;;;0.80;;
20865;SDS011;10593;48.398;10.698;2023-04-24T10:27:52;1.20;;;0.80;;
20865;SDS011;10593;48.398;10.698;2023-04-24T10:30:22;0.80;;;0.80;;
20865;SDS011;10593;48.398;10.698;2023-04-24T10:32:48;1.17;;;1.10;;
20865;SDS011;10593;48.398;10.698;2023-04-24T10:35:15;1.10;;;0.80;;
20865;SDS011;10593;48.398;10.698;2023-04-24T10:37:44;0.90;;;0.90;;
20865;SDS011;10593;48.398;10.698;2023-04-24T10:40:16;0.80;;;0.80;;
20865;SDS011;10593;48.398;10.698;2023-04-24T10:42:46;0.70;;;0.70;;
20865;SDS011;10593;48.398;10.698;2023-04-24T10:45:19;1.07;;;0.80;;
20865;SDS011;10593;48.398;10.698;2023-04-24T10:48:00;1.20;;;0.80;;
20865;SDS011;10593;48.398;10.698;2023-04-24T10:50:30;0.80;;;0.80;;
20865;SDS011;10593;48.398;10.698;2023-04-24T10:53:14;1.13;;;0.70;;
20865;SDS011;10593;48.398;10.698;2023-04-24T10:58:13;0.87;;;0.80;;
20865;SDS011;10593;48.398;10.698;2023-04-24T11:00:41;0.70;;;0.70;;
20865;SDS011;10593;48.398;10.698;2023-04-24T11:03:25;0.83;;;0.83;;
20865;SDS011;10593;48.398;10.698;2023-04-24T11:11:02;0.93;;;0.70;;
20865;SDS011;10593;48.398;10.698;2023-04-24T11:16:23;1.37;;;1.10;;
20865;SDS011;10593;48.398;10.698;2023-04-24T11:22:14;1.20;;;1.10;;
20865;SDS011;10593;48.398;10.698;2023-04-24T11:24:40;0.90;;;0.90;;
20865;SDS011;10593;48.398;10.698;2023-04-24T11:27:16;1.17;;;1.07;;
20865;SDS011;10593;48.398;10.698;2023-04-24T11:35:08;0.83;;;0.83;;
20865;SDS011;10593;48.398;10.698;2023-04-24T11:37:49;0.97;;;0.73;;
20865;SDS011;10593;48.398;10.698;2023-04-24T11:40:18;0.70;;;0.70;;
20865;SDS011;10593;48.398;10.698;2023-04-24T11:42:52;0.70;;;0.70;;
20865;SDS011;10593;48.398;10.698;2023-04-24T11:45:24;0.60;;;0.60;;
20865;SDS011;10593;48.398;10.698;2023-04-24T11:47:54;1.90;;;0.77;;
20865;SDS011;10593;48.398;10.698;2023-04-24T11:50:24;0.60;;;0.60;;
20865;SDS011;10593;48.398;10.698;2023-04-24T11:52:52;1.13;;;0.80;;
20865;SDS011;10593;48.398;10.698;2023-04-24T11:57:45;0.87;;;0.87;;
20865;SDS011;10593;48.398;10.698;2023-04-24T12:00:20;0.60;;;0.60;;
20865;SDS011;10593;48.398;10.698;2023-04-24T12:02:49;0.83;;;0.70;;
20865;SDS011;10593;48.398;10.698;2023-04-24T12:05:27;0.67;;;0.67;;
20865;SDS011;10593;48.398;10.698;2023-04-24T12:07:56;0.80;;;0.80;;
20865;SDS011;10593;48.398;10.698;2023-04-24T12:10:22;0.70;;;0.70;;
20865;SDS011;10593;48.398;10.698;2023-04-24T12:12:50;0.87;;;0.80;;
20865;SDS011;10593;48.398;10.698;2023-04-24T12:15:17;0.70;;;0.63;;
20865;SDS011;10593;48.398;10.698;2023-04-24T12:17:45;1.37;;;1.00;;
20865;SDS011;10593;48.398;10.698;2023-04-24T12:20:11;0.97;;;0.97;;
20865;SDS011;10593;48.398;10.698;2023-04-24T12:22:51;0.80;;;0.80;;
20865;SDS011;10593;48.398;10.698;2023-04-24T12:25:22;0.80;;;0.80;;
20865;SDS011;10593;48.398;10.698;2023-04-24T12:28:10;0.97;;;0.80;;
20865;SDS011;10593;48.398;10.698;2023-04-24T12:30:44;0.80;;;0.80;;
20865;SDS011;10593;48.398;10.698;2023-04-24T12:33:19;0.90;;;0.67;;
20865;SDS011;10593;48.398;10.698;2023-04-24T12:35:47;0.93;;;0.93;;
20865;SDS011;10593;48.398;10.698;2023-04-24T12:38:21;0.70;;;0.70;;
20865;SDS011;10593;48.398;10.698;2023-04-24T12:41:00;0.83;;;0.83;;
20865;SDS011;10593;48.398;10.698;2023-04-24T12:43:31;0.80;;;0.80;;
20865;SDS011;10593;48.398;10.698;2023-04-24T12:45:57;2.23;;;0.77;;
20865;SDS011;10593;48.398;10.698;2023-04-24T12:48:24;0.70;;;0.70;;
20865;SDS011;10593;48.398;10.698;2023-04-24T12:50:51;0.60;;;0.60;;
20865;SDS011;10593;48.398;10.698;2023-04-24T12:53:17;1.23;;;0.73;;
20865;SDS011;10593;48.398;10.698;2023-04-24T12:55:42;0.57;;;0.57;;
20865;SDS011;10593;48.398;10.698;2023-04-24T12:58:09;1.03;;;0.60;;
20865;SDS011;10593;48.398;10.698;2023-04-24T13:00:35;1.43;;;0.80;;
20865;SDS011;10593;48.398;10.698;2023-04-24T13:03:02;0.63;;;0.50;;
20865;SDS011;10593;48.398;10.698;2023-04-24T13:05:28;0.80;;;0.80;;
20865;SDS011;10593;48.398;10.698;2023-04-24T13:07:53;0.70;;;0.70;;
20865;SDS011;10593;48.398;10.698;2023-04-24T13:10:19;0.50;;;0.50;;
20865;SDS011;10593;48.398;10.698;2023-04-24T13:12:45;2.00;;;1.33;;
20865;SDS011;10593;48.398;10.698;2023-04-24T13:15:11;1.30;;;1.10;;
20865;SDS011;10593;48.398;10.698;2023-04-24T13:17:37;0.80;;;0.80;;
20865;SDS011;10593;48.398;10.698;2023-04-24T13:20:03;0.90;;;0.80;;
20865;SDS011;10593;48.398;10.698;2023-04-24T13:22:29;1.90;;;0.77;;
20865;SDS011;10593;48.398;10.698;2023-04-24T13:24:55;0.80;;;0.80;;
20865;SDS011;10593;48.398;10.698;2023-04-24T13:27:21;1.07;;;0.70;;
20865;SDS011;10593;48.398;10.698;2023-04-24T13:29:46;0.60;;;0.60;;
20865;SDS011;10593;48.398;10.698;2023-04-24T13:32:12;0.80;;;0.80;;
20865;SDS011;10593;48.398;10.698;2023-04-24T13:34:38;0.80;;;0.60;;
20865;SDS011;10593;48.398;10.698;2023-04-24T13:37:04;0.70;;;0.70;;
20865;SDS011;10593;48.398;10.698;2023-04-24T13:39:33;1.13;;;0.50;;
20865;SDS011;10593;48.398;10.698;2023-04-24T13:41:59;0.77;;;0.63;;
20865;SDS011;10593;48.398;10.698;2023-04-24T13:44:25;1.33;;;0.83;;
20865;SDS011;10593;48.398;10.698;2023-04-24T13:46:53;0.67;;;0.63;;
20865;SDS011;10593;48.398;10.698;2023-04-24T13:49:22;1.17;;;0.80;;
20865;SDS011;10593;48.398;10.698;2023-04-24T13:51:50;1.33;;;1.00;;
20865;SDS011;10593;48.398;10.698;2023-04-24T13:54:17;0.93;;;0.70;;
20865;SDS011;10593;48.398;10.698;2023-04-24T13:56:42;0.43;;;0.43;;
20865;SDS011;10593;48.398;10.698;2023-04-24T13:59:08;0.50;;;0.50;;
20865;SDS011;10593;48.398;10.698;2023-04-24T14:01:34;0.63;;;0.63;;
20865;SDS011;10593;48.398;10.698;2023-04-24T14:04:00;0.53;;;0.53;;
20865;SDS011;10593;48.398;10.698;2023-04-24T14:06:26;0.80;;;0.60;;
20865;SDS011;10593;48.398;10.698;2023-04-24T14:08:52;0.43;;;0.43;;
20865;SDS011;10593;48.398;10.698;2023-04-24T14:11:18;0.67;;;0.60;;
20865;SDS011;10593;48.398;10.698;2023-04-24T14:13:44;0.77;;;0.70;;
20865;SDS011;10593;48.398;10.698;2023-04-24T14:16:10;0.50;;;0.50;;
20865;SDS011;10593;48.398;10.698;2023-04-24T14:18:36;1.13;;;0.50;;
20865;SDS011;10593;48.398;10.698;2023-04-24T14:21:03;0.83;;;0.83;;
20865;SDS011;10593;48.398;10.698;2023-04-24T14:23:29;0.67;;;0.67;;
20865;SDS011;10593;48.398;10.698;2023-04-24T14:25:55;0.60;;;0.60;;
20865;SDS011;10593;48.398;10.698;2023-04-24T14:28:22;0.50;;;0.50;;
20865;SDS011;10593;48.398;10.698;2023-04-24T14:30:49;0.50;;;0.50;;
20865;SDS011;10593;48.398;10.698;2023-04-24T14:33:15;1.17;;;0.40;;
20865;SDS011;10593;48.398;10.698;2023-04-24T14:35:41;0.43;;;0.43;;
20865;SDS011;10593;48.398;10.698;2023-04-24T14:38:07;1.67;;;0.53;;
20865;SDS011;10593;48.398;10.698;2023-04-24T14:40:33;0.40;;;0.40;;
20865;SDS011;10593;48.398;10.698;2023-04-24T14:42:59;0.60;;;0.60;;
20865;SDS011;10593;48.398;10.698;2023-04-24T14:45:26;0.50;;;0.47;;
20865;SDS011;10593;48.398;10.698;2023-04-24T14:47:52;0.50;;;0.50;;
20865;SDS011;10593;48.398;10.698;2023-04-24T14:50:18;0.37;;;0.37;;
20865;SDS011;10593;48.398;10.698;2023-04-24T14:52:45;0.47;;;0.47;;
20865;SDS011;10593;48.398;10.698;2023-04-24T14:55:11;0.50;;;0.50;;